sensor_id;sensor_type;location;lat;lon;timestamp;pressure;altitude;pressure_sealevel;temperature
16759;BMP280;8497;51.346;12.396;2024-02-26T18:04:52;99374.22;;;11.76
16759;BMP280;8497;51.346;12.396;2024-02-26T18:07:21;99368.97;;;11.67
16759;BMP280;8497;51.346;12.396;2024-02-26T18:09:51;99389.09;;;11.64
16759;BMP280;8497;51.346;12.396;2024-02-26T18:12:21;99388.97;;;11.58
16759;BMP280;8497;51.346;12.396;2024-02-26T18:14:59;99402.34;;;11.56
16759;BMP280;8497;51.346;12.396;2024-02-26T18:17:31;99404.78;;;11.53
16759;BMP280;8497;51.346;12.396;2024-02-26T18:20:05;99406.47;;;11.52
16759;BMP280;8497;51.346;12.396;2024-02-26T18:22:35;99413.81;;;11.43
16759;BMP280;8497;51.346;12.396;2024-02-26T18:25:07;99411.16;;;11.39
16759;BMP280;8497;51.346;12.396;2024-02-26T18:27:37;99403.53;;;11.35
16759;BMP280;8497;51.346;12.396;2024-02-26T18:30:08;99398.28;;;11.27
16759;BMP280;8497;51.346;12.396;2024-02-26T18:32:37;99414.16;;;11.23
16759;BMP280;8497;51.346;12.396;2024-02-26T18:35:09;99411.59;;;11.22
16759;BMP280;8497;51.346;12.396;2024-02-26T18:37:41;99417.41;;;11.18
16759;BMP280;8497;51.346;12.396;2024-02-26T18:40:10;99427.44;;;11.16
16759;BMP280;8497;51.346;12.396;2024-02-26T18:42:39;99421.38;;;11.10
16759;BMP280;8497;51.346;12.396;2024-02-26T18:45:09;99431.34;;;11.04
16759;BMP280;8497;51.346;12.396;2024-02-26T18:47:39;99426.19;;;10.99
16759;BMP280;8497;51.346;12.396;2024-02-26T18:50:10;99426.94;;;10.97
16759;BMP280;8497;51.346;12.396;2024-02-26T18:52:40;99443.72;;;10.95
16759;BMP280;8497;51.346;12.396;2024-02-26T18:55:21;99439.31;;;10.88
16759;BMP280;8497;51.346;12.396;2024-02-26T18:57:52;99439.22;;;10.85
16759;BMP280;8497;51.346;12.396;2024-02-26T19:00:21;99435.69;;;10.79
16759;BMP280;8497;51.346;12.396;2024-02-26T19:02:49;99455.81;;;10.77
16759;BMP280;8497;51.346;12.396;2024-02-26T19:05:24;99456.63;;;10.75
16759;BMP280;8497;51.346;12.396;2024-02-26T19:07:54;99465.72;;;10.71
16759;BMP280;8497;51.346;12.396;2024-02-26T19:10:26;99468.16;;;10.67
16759;BMP280;8497;51.346;12.396;2024-02-26T19:12:54;99469.81;;;10.66
16759;BMP280;8497;51.346;12.396;2024-02-26T19:15:26;99460.47;;;10.62
16759;BMP280;8497;51.346;12.396;2024-02-26T19:17:55;99463.66;;;10.57
16759;BMP280;8497;51.346;12.396;2024-02-26T19:20:27;99467.81;;;10.55
16759;BMP280;8497;51.346;12.396;2024-02-26T19:22:56;99474.41;;;10.50
16759;BMP280;8497;51.346;12.396;2024-02-26T19:25:27;99473.44;;;10.47
16759;BMP280;8497;51.346;12.396;2024-02-26T19:27:56;99481.09;;;10.49
16759;BMP280;8497;51.346;12.396;2024-02-26T19:30:24;99481.97;;;10.50
16759;BMP280;8497;51.346;12.396;2024-02-26T19:32:53;99489.44;;;10.47
16759;BMP280;8497;51.346;12.396;2024-02-26T19:35:22;99490.19;;;10.45
16759;BMP280;8497;51.346;12.396;2024-02-26T19:37:58;99487.63;;;10.43
16759;BMP280;8497;51.346;12.396;2024-02-26T19:40:26;99489.16;;;10.38
16759;BMP280;8497;51.346;12.396;2024-02-26T19:42:55;99492.41;;;10.34
16759;BMP280;8497;51.346;12.396;2024-02-26T19:45:23;99499.91;;;10.33
16759;BMP280;8497;51.346;12.396;2024-02-26T19:47:52;99498.25;;;10.33
16759;BMP280;8497;51.346;12.396;2024-02-26T19:50:21;99502.56;;;10.37
16759;BMP280;8497;51.346;12.396;2024-02-26T19:52:53;99504.28;;;10.38
16759;BMP280;8497;51.346;12.396;2024-02-26T19:55:21;99507.59;;;10.37
16759;BMP280;8497;51.346;12.396;2024-02-26T19:57:51;99513.47;;;10.36
16759;BMP280;8497;51.346;12.396;2024-02-26T20:00:25;99512.53;;;10.34
16759;BMP280;8497;51.346;12.396;2024-02-26T20:02:54;99515.09;;;10.36
16759;BMP280;8497;51.346;12.396;2024-02-26T20:05:24;99518.41;;;10.33
16759;BMP280;8497;51.346;12.396;2024-02-26T20:07:54;99524.25;;;10.32
16759;BMP280;8497;51.346;12.396;2024-02-26T20:10:23;99524.16;;;10.29
16759;BMP280;8497;51.346;12.396;2024-02-26T20:13:01;99530.72;;;10.24
16759;BMP280;8497;51.346;12.396;2024-02-26T20:15:33;99531.38;;;10.19
16759;BMP280;8497;51.346;12.396;2024-02-26T20:18:02;99535.66;;;10.21
16759;BMP280;8497;51.346;12.396;2024-02-26T20:20:35;99532.97;;;10.15
16759;BMP280;8497;51.346;12.396;2024-02-26T20:23:05;99537.94;;;10.14
16759;BMP280;8497;51.346;12.396;2024-02-26T20:25:34;99533.56;;;10.07
16759;BMP280;8497;51.346;12.396;2024-02-26T20:28:04;99544.41;;;10.06
16759;BMP280;8497;51.346;12.396;2024-02-26T20:30:33;99552.81;;;10.06
16759;BMP280;8497;51.346;12.396;2024-02-26T20:33:02;99551.94;;;10.04
16759;BMP280;8497;51.346;12.396;2024-02-26T20:35:32;99563.63;;;10.03
16759;BMP280;8497;51.346;12.396;2024-02-26T20:38:00;99564.31;;;9.99
16759;BMP280;8497;51.346;12.396;2024-02-26T20:40:30;99560.00;;;9.95
16759;BMP280;8497;51.346;12.396;2024-02-26T20:43:00;99567.53;;;9.93
16759;BMP280;8497;51.346;12.396;2024-02-26T20:45:29;99568.22;;;9.91
16759;BMP280;8497;51.346;12.396;2024-02-26T20:47:57;99574.00;;;9.88
16759;BMP280;8497;51.346;12.396;2024-02-26T20:50:26;99574.78;;;9.86
16759;BMP280;8497;51.346;12.396;2024-02-26T20:52:55;99579.63;;;9.80
16759;BMP280;8497;51.346;12.396;2024-02-26T20:55:23;99581.03;;;9.72
16759;BMP280;8497;51.346;12.396;2024-02-26T20:57:56;99585.88;;;9.66
16759;BMP280;8497;51.346;12.396;2024-02-26T21:00:25;99590.00;;;9.64
16759;BMP280;8497;51.346;12.396;2024-02-26T21:02:55;99592.41;;;9.61
16759;BMP280;8497;51.346;12.396;2024-02-26T21:05:24;99589.81;;;9.58
16759;BMP280;8497;51.346;12.396;2024-02-26T21:07:53;99589.66;;;9.54
16759;BMP280;8497;51.346;12.396;2024-02-26T21:10:21;99593.69;;;9.49
16759;BMP280;8497;51.346;12.396;2024-02-26T21:13:04;99589.38;;;9.46
16759;BMP280;8497;51.346;12.396;2024-02-26T21:15:34;99594.34;;;9.45
16759;BMP280;8497;51.346;12.396;2024-02-26T21:18:06;99598.44;;;9.41
16759;BMP280;8497;51.346;12.396;2024-02-26T21:20:39;99593.25;;;9.37
16759;BMP280;8497;51.346;12.396;2024-02-26T21:23:14;99599.13;;;9.37
16759;BMP280;8497;51.346;12.396;2024-02-26T21:25:45;99603.16;;;9.32
16759;BMP280;8497;51.346;12.396;2024-02-26T21:28:20;99610.66;;;9.31
16759;BMP280;8497;51.346;12.396;2024-02-26T21:30:49;99618.97;;;9.28
16759;BMP280;8497;51.346;12.396;2024-02-26T21:33:27;99617.13;;;9.24
16759;BMP280;8497;51.346;12.396;2024-02-26T21:35:56;99610.44;;;9.25
16759;BMP280;8497;51.346;12.396;2024-02-26T21:38:29;99616.28;;;9.24
16759;BMP280;8497;51.346;12.396;2024-02-26T21:41:12;99623.88;;;9.25
16759;BMP280;8497;51.346;12.396;2024-02-26T21:43:46;99623.06;;;9.26
16759;BMP280;8497;51.346;12.396;2024-02-26T21:46:18;99626.50;;;9.28
16759;BMP280;8497;51.346;12.396;2024-02-26T21:48:52;99623.94;;;9.27
16759;BMP280;8497;51.346;12.396;2024-02-26T21:51:24;99629.00;;;9.28
16759;BMP280;8497;51.346;12.396;2024-02-26T21:53:53;99636.56;;;9.28
16759;BMP280;8497;51.346;12.396;2024-02-26T21:56:24;99651.72;;;9.31
16759;BMP280;8497;51.346;12.396;2024-02-26T21:58:56;99648.31;;;9.29
16759;BMP280;8497;51.346;12.396;2024-02-26T22:01:28;99660.19;;;9.33
16759;BMP280;8497;51.346;12.396;2024-02-26T22:04:00;99665.28;;;9.35
16759;BMP280;8497;51.346;12.396;2024-02-26T22:06:33;99667.00;;;9.37
16759;BMP280;8497;51.346;12.396;2024-02-26T22:09:06;99675.38;;;9.36
16759;BMP280;8497;51.346;12.396;2024-02-26T22:11:35;99671.19;;;9.37
16759;BMP280;8497;51.346;12.396;2024-02-26T22:14:06;99672.03;;;9.37
16759;BMP280;8497;51.346;12.396;2024-02-26T22:16:35;99669.47;;;9.36
16759;BMP280;8497;51.346;12.396;2024-02-26T22:19:07;99672.88;;;9.36
16759;BMP280;8497;51.346;12.396;2024-02-26T22:21:41;99679.47;;;9.34
16759;BMP280;8497;51.346;12.396;2024-02-26T22:24:10;99676.84;;;9.31
16759;BMP280;8497;51.346;12.396;2024-02-26T22:26:39;99675.91;;;9.28
16759;BMP280;8497;51.346;12.396;2024-02-26T22:29:09;99678.38;;;9.26
16759;BMP280;8497;51.346;12.396;2024-02-26T22:31:40;99688.59;;;9.31
16759;BMP280;8497;51.346;12.396;2024-02-26T22:34:08;99686.88;;;9.30
16759;BMP280;8497;51.346;12.396;2024-02-26T22:36:39;99683.59;;;9.32
16759;BMP280;8497;51.346;12.396;2024-02-26T22:39:07;99677.78;;;9.33
16759;BMP280;8497;51.346;12.396;2024-02-26T22:41:40;99690.59;;;9.39
16759;BMP280;8497;51.346;12.396;2024-02-26T22:44:12;99701.44;;;9.38
16759;BMP280;8497;51.346;12.396;2024-02-26T22:46:41;99699.66;;;9.36
16759;BMP280;8497;51.346;12.396;2024-02-26T22:49:09;99701.31;;;9.35
16759;BMP280;8497;51.346;12.396;2024-02-26T22:51:38;99700.41;;;9.33
16759;BMP280;8497;51.346;12.396;2024-02-26T22:54:07;99704.50;;;9.30
16759;BMP280;8497;51.346;12.396;2024-02-26T22:56:40;99712.78;;;9.27
16759;BMP280;8497;51.346;12.396;2024-02-26T22:59:10;99715.13;;;9.23
16759;BMP280;8497;51.346;12.396;2024-02-26T23:01:49;99703.28;;;9.20
16759;BMP280;8497;51.346;12.396;2024-02-26T23:04:19;99708.41;;;9.23
16759;BMP280;8497;51.346;12.396;2024-02-26T23:06:50;99700.88;;;9.23
16759;BMP280;8497;51.346;12.396;2024-02-26T23:09:23;99714.28;;;9.22
16759;BMP280;8497;51.346;12.396;2024-02-26T23:11:53;99714.94;;;9.18
16759;BMP280;8497;51.346;12.396;2024-02-26T23:14:22;99719.28;;;9.22
16759;BMP280;8497;51.346;12.396;2024-02-26T23:16:53;99713.44;;;9.23
16759;BMP280;8497;51.346;12.396;2024-02-26T23:19:27;99711.88;;;9.25
16759;BMP280;8497;51.346;12.396;2024-02-26T23:21:58;99715.34;;;9.29
16759;BMP280;8497;51.346;12.396;2024-02-26T23:24:30;99714.78;;;9.37
16759;BMP280;8497;51.346;12.396;2024-02-26T23:26:59;99714.22;;;9.44
16759;BMP280;8497;51.346;12.396;2024-02-26T23:29:28;99719.19;;;9.43
16759;BMP280;8497;51.346;12.396;2024-02-26T23:31:58;99718.31;;;9.41
16759;BMP280;8497;51.346;12.396;2024-02-26T23:34:27;99719.94;;;9.40
16759;BMP280;8497;51.346;12.396;2024-02-26T23:36:55;99722.44;;;9.40
16759;BMP280;8497;51.346;12.396;2024-02-26T23:39:24;99729.22;;;9.41
16759;BMP280;8497;51.346;12.396;2024-02-26T23:41:53;99730.72;;;9.36
16759;BMP280;8497;51.346;12.396;2024-02-26T23:44:21;99739.78;;;9.33
16759;BMP280;8497;51.346;12.396;2024-02-26T23:46:50;99732.16;;;9.31
16759;BMP280;8497;51.346;12.396;2024-02-26T23:49:20;99742.28;;;9.33
16759;BMP280;8497;51.346;12.396;2024-02-26T23:51:49;99741.56;;;9.35
16759;BMP280;8497;51.346;12.396;2024-02-26T23:54:17;99739.72;;;9.31
16759;BMP280;8497;51.346;12.396;2024-02-26T23:56:46;99737.91;;;9.27
16759;BMP280;8497;51.346;12.396;2024-02-26T23:59:14;99747.13;;;9.27
